createdAt,value
2023-05-05T00:54:29.923Z,964.02
2023-05-05T00:59:31.183Z,963.99
2023-05-05T01:04:32.437Z,963.9
2023-05-05T01:09:34.331Z,963.82
2023-05-05T01:14:36.010Z,963.82
2023-05-05T01:19:37.386Z,963.79
2023-05-05T01:24:39.354Z,963.79
2023-05-05T01:29:41.126Z,963.77
2023-05-05T01:34:42.855Z,963.72
2023-05-05T01:39:44.747Z,963.71
2023-05-05T01:44:46.276Z,963.72
2023-05-05T01:49:48.331Z,963.75
2023-05-05T01:54:50.252Z,963.76
2023-05-05T01:59:52.009Z,963.78
2023-05-05T02:04:53.230Z,963.8
2023-05-05T02:09:55.114Z,963.81
2023-05-05T02:14:57.165Z,963.88
2023-05-05T02:19:58.871Z,963.82
2023-05-05T02:25:00.946Z,963.83
2023-05-05T02:30:02.727Z,963.82
2023-05-05T02:35:04.818Z,963.89
2023-05-05T02:40:06.564Z,963.84
2023-05-05T02:45:08.131Z,963.88
2023-05-05T02:50:10.314Z,963.84
2023-05-05T02:55:11.631Z,963.84
2023-05-05T03:00:13.283Z,963.88
2023-05-05T03:05:15.071Z,963.95
2023-05-05T03:10:16.616Z,963.91
2023-05-05T03:15:18.259Z,964
2023-05-05T03:20:20.099Z,963.99
2023-05-05T03:25:22.033Z,963.99
2023-05-05T03:30:23.302Z,963.97
2023-05-05T03:35:24.508Z,963.88
2023-05-05T03:40:32.816Z,963.92
2023-05-05T03:45:27.346Z,963.97
2023-05-05T03:50:28.356Z,963.98
2023-05-05T03:55:29.553Z,963.97
2023-05-05T04:00:31.037Z,963.93
2023-05-05T04:05:32.836Z,963.89
2023-05-05T04:10:34.414Z,963.95
2023-05-05T04:15:35.808Z,963.93
2023-05-05T04:20:37.464Z,963.85
2023-05-05T04:25:38.719Z,963.98
2023-05-05T04:30:40.888Z,964.05
2023-05-05T04:35:42.568Z,964.05
2023-05-05T04:40:43.896Z,964.15
2023-05-05T04:45:46.064Z,964.14
2023-05-05T04:50:48.161Z,964.15
2023-05-05T04:55:49.924Z,964.17
2023-05-05T05:00:51.546Z,964.14
2023-05-05T05:05:53.663Z,964.18
2023-05-05T05:10:54.847Z,964.2
2023-05-05T05:15:56.524Z,964.28
2023-05-05T05:20:57.796Z,964.29
2023-05-05T05:25:59.513Z,964.29
2023-05-05T05:31:01.427Z,964.21
2023-05-05T05:36:03.135Z,964.27
2023-05-05T05:41:04.420Z,964.34
2023-05-05T05:46:07.588Z,964.3
2023-05-05T05:51:07.841Z,964.23
2023-05-05T05:56:09.800Z,964.28
2023-05-05T06:01:11.530Z,964.33
2023-05-05T06:06:13.422Z,964.3
2023-05-05T06:11:15.551Z,964.31
2023-05-05T06:16:17.465Z,964.29
2023-05-05T06:21:19.574Z,964.32
2023-05-05T06:26:21.403Z,964.34
2023-05-05T06:31:23.568Z,964.34
2023-05-05T06:36:25.275Z,964.36
2023-05-05T06:41:27.071Z,964.4
2023-05-05T06:46:28.863Z,964.43
2023-05-05T06:51:30.094Z,964.42
2023-05-05T06:56:31.770Z,964.42
2023-05-05T07:01:33.529Z,964.47
2023-05-05T07:06:34.895Z,964.5
2023-05-05T07:11:36.396Z,964.49
2023-05-05T07:16:38.217Z,964.39
2023-05-05T07:21:39.664Z,964.37
2023-05-05T07:26:41.353Z,964.34
2023-05-05T07:31:43.468Z,964.36
2023-05-05T07:36:44.789Z,964.34
2023-05-05T07:41:46.518Z,964.32
2023-05-05T07:46:48.380Z,964.31
2023-05-05T07:51:50.278Z,964.27
2023-05-05T07:56:52.494Z,964.28
2023-05-05T08:01:54.983Z,964.25
2023-05-05T08:06:56.041Z,964.24
2023-05-05T08:11:57.225Z,964.27
2023-05-05T08:16:58.570Z,964.26
2023-05-05T08:22:01.184Z,964.27
2023-05-05T08:27:01.893Z,964.24
2023-05-05T08:32:03.647Z,964.25
2023-05-05T08:37:04.907Z,964.19
2023-05-05T08:42:06.327Z,964.13
2023-05-05T08:47:08.488Z,964.14
2023-05-05T08:52:10.027Z,964.16
2023-05-05T08:57:11.495Z,964.21
2023-05-05T09:02:13.142Z,964.22
2023-05-05T09:07:14.862Z,964.26
2023-05-05T09:12:16.048Z,964.24
2023-05-05T09:17:17.629Z,964.23
2023-05-05T09:22:19.209Z,964.16
2023-05-05T09:27:20.419Z,964.07
2023-05-05T09:32:21.834Z,964.09
2023-05-05T09:37:23.597Z,964.05
2023-05-05T09:42:25.669Z,964.03
2023-05-05T09:47:29.701Z,964.01
2023-05-05T09:52:29.207Z,964.01
2023-05-05T09:57:30.652Z,963.98
2023-05-05T10:02:32.709Z,963.92
2023-05-05T10:07:34.448Z,963.93
2023-05-05T10:12:35.891Z,963.91
2023-05-05T10:17:37.530Z,963.86
2023-05-05T10:22:39.549Z,963.87
2023-05-05T10:27:41.517Z,963.85
2023-05-05T10:37:44.622Z,963.79
2023-05-05T10:42:45.894Z,963.68
2023-05-05T10:47:47.062Z,963.56
2023-05-05T10:52:49.082Z,963.6
2023-05-05T10:57:50.508Z,963.55
2023-05-05T11:02:52.624Z,963.49
2023-05-05T11:07:54.072Z,963.4
2023-05-05T11:12:55.919Z,963.35
2023-05-05T11:17:58.062Z,963.34
2023-05-05T11:22:59.869Z,963.22
2023-05-05T11:28:01.140Z,963.28
2023-05-05T11:33:03.292Z,963.17
2023-05-05T11:38:05.181Z,963.14
2023-05-05T11:43:06.748Z,963.07
2023-05-05T11:48:08.556Z,963.02
2023-05-05T11:53:10.120Z,962.98
2023-05-05T11:58:11.802Z,962.99
2023-05-05T12:03:13.504Z,962.96
2023-05-05T12:08:14.674Z,962.84
2023-05-05T12:13:16.191Z,962.84
2023-05-05T12:18:17.722Z,962.8
2023-05-05T12:23:19.395Z,962.8
2023-05-05T12:28:21.267Z,962.83
2023-05-05T12:33:22.437Z,962.75
2023-05-05T12:38:24.049Z,962.64
2023-05-05T12:43:26.127Z,962.66
2023-05-05T12:48:27.300Z,962.6
2023-05-05T12:58:30.622Z,962.44
2023-05-05T13:23:39.678Z,962.08
2023-05-05T13:38:51.387Z,961.9
2023-05-05T14:29:09.528Z,961.32
2023-05-05T14:39:12.867Z,961.36
2023-05-05T15:04:22.246Z,961.13
2023-05-05T15:09:24.315Z,961.07
2023-05-05T15:24:29.728Z,961.07
2023-05-05T15:29:31.533Z,961.08
2023-05-05T15:34:32.911Z,961
2023-05-05T15:39:34.884Z,960.93
2023-05-05T15:44:36.989Z,960.87
2023-05-05T15:49:38.992Z,960.86
2023-05-05T15:54:40.429Z,960.81
2023-05-05T15:59:42.117Z,960.8
2023-05-05T16:04:43.859Z,960.82
2023-05-05T16:09:45.514Z,960.83
2023-05-05T16:14:47.039Z,960.86
2023-05-05T16:19:48.684Z,960.79
2023-05-05T16:24:50.604Z,960.76
2023-05-05T16:29:51.922Z,960.67
2023-05-05T16:34:53.961Z,960.63
2023-05-05T16:39:55.446Z,960.62
2023-05-05T16:44:56.869Z,960.67
2023-05-05T16:49:58.398Z,960.68
2023-05-05T16:55:00.534Z,960.62
2023-05-05T17:00:01.733Z,960.61
2023-05-05T17:05:03.371Z,960.54
2023-05-05T17:10:05.290Z,960.43
2023-05-05T17:15:07.042Z,960.37
2023-05-05T17:20:08.158Z,960.44
2023-05-05T17:25:10.070Z,960.45
2023-05-05T17:30:10.972Z,960.44
2023-05-05T17:35:12.436Z,960.39
2023-05-05T17:40:14.311Z,960.37
2023-05-05T17:45:16.118Z,960.29
2023-05-05T17:50:17.506Z,960.28
2023-05-05T17:55:18.948Z,960.29
2023-05-05T18:00:20.588Z,960.17
2023-05-05T18:05:21.946Z,960.01
2023-05-05T18:10:23.999Z,959.94
2023-05-05T18:15:25.265Z,959.92
2023-05-05T18:20:27.160Z,960.07
2023-05-05T18:25:28.801Z,960.32
2023-05-05T18:30:30.602Z,960.42
2023-05-05T18:35:31.871Z,960.51
2023-05-05T18:40:33.904Z,960.77
2023-05-05T18:45:35.778Z,960.79
2023-05-05T18:50:37.497Z,960.89
2023-05-05T18:55:39.019Z,961.37
2023-05-05T19:00:40.807Z,962.78
2023-05-05T19:05:42.043Z,963.22
2023-05-05T19:10:43.933Z,963.33
2023-05-05T19:15:45.418Z,963.38
2023-05-05T19:20:46.691Z,963.39
2023-05-05T19:25:47.954Z,963.57
2023-05-05T19:30:49.781Z,963.46
2023-05-05T19:35:51.514Z,963.03
2023-05-05T19:40:53.011Z,963.24
2023-05-05T19:45:54.509Z,963.51
2023-05-05T19:50:56.470Z,963.44
2023-05-05T19:55:58.076Z,963.31
2023-05-05T20:00:59.764Z,963.23
2023-05-05T20:06:01.111Z,963.3
2023-05-05T20:11:02.635Z,963.29
2023-05-05T20:16:04.284Z,963.46
2023-05-05T20:21:06.205Z,963.57
2023-05-05T20:26:07.430Z,963.56
2023-05-05T20:31:09.463Z,963.69
2023-05-05T20:36:10.595Z,963.78
2023-05-05T20:41:11.870Z,963.81
2023-05-05T20:46:13.600Z,963.79
2023-05-05T20:51:15.006Z,963.81
2023-05-05T20:56:16.908Z,963.75
2023-05-05T21:01:18.431Z,963.68
2023-05-05T21:06:20.116Z,963.59
2023-05-05T21:11:21.496Z,963.53
2023-05-05T21:16:22.786Z,963.46
2023-05-05T21:21:24.346Z,963.48
2023-05-05T21:26:26.254Z,963.51
2023-05-05T21:31:27.385Z,963.59
2023-05-05T21:36:29.414Z,963.58
2023-05-05T21:41:31.003Z,963.56
2023-05-05T21:46:33.039Z,963.46
2023-05-05T21:51:34.433Z,963.44
2023-05-05T21:56:36.509Z,963.43
2023-05-05T22:01:38.410Z,963.45
2023-05-05T22:06:40.304Z,963.4
2023-05-05T22:11:42.050Z,963.43
2023-05-05T22:16:44.151Z,963.47
2023-05-05T22:21:45.604Z,963.49
2023-05-05T22:26:47.303Z,963.5
2023-05-05T22:31:48.639Z,963.46
2023-05-05T22:36:50.668Z,963.48
2023-05-05T22:41:51.970Z,963.48
2023-05-05T22:46:53.970Z,963.42
2023-05-05T22:51:55.402Z,963.39
2023-05-05T22:56:56.594Z,963.42
2023-05-05T23:01:58.234Z,963.37
2023-05-05T23:07:00.121Z,963.29
2023-05-05T23:12:01.421Z,963.28
2023-05-05T23:17:02.849Z,963.3
2023-05-05T23:22:04.734Z,963.26
2023-05-05T23:27:06.726Z,963.21
2023-05-05T23:32:07.934Z,963.32
2023-05-05T23:37:09.216Z,963.27
2023-05-05T23:42:10.514Z,963.29
2023-05-05T23:47:12.219Z,963.25
2023-05-05T23:52:14.376Z,963.27
2023-05-05T23:57:15.597Z,963.31
